Celtic Warrior — 2IBU5 — position and weather

sailwx.info

Track history (hours):
 
Tides and Currents Weather Stations Pressure Air Temp Water Temp Dewpoint Dewpoint Depression Visibility Wind Speed Wind Dir Waves Ship Positions

Celtic Warrior

Last reported at 2017-Dec-10 21:09 UTC. Time now 2017-Dec-11 00:29 UTC.
Position N 50°21' W 004°38'.

Length 89 m; draft 4.8 m.

Type: Cargo ship. MMSI: 235108405.

Date/timePositionNaut miles runAvg speedWind from/ knotsBaromVisibWave heightAir tempDewpointWater temp
2017-Dec-10 21:09N 50°21' W 004°38'0 0.6
2017-Dec-10 20:40N 50°20' W 004°38'1 5.3
2017-Dec-10 20:30N 50°20' W 004°39'4 8.3
2017-Dec-10 20:01N 50°18' W 004°33'510.2
2017-Dec-10 19:31N 50°18' W 004°25'5 9.8
2017-Dec-10 19:01N 50°18' W 004°17'4 8.8
2017-Dec-10 18:31N 50°20' W 004°10'3 5.9
2017-Dec-10 18:01N 50°22' W 004°08'0 0.1
2017-Dec-10 17:28N 50°22' W 004°08'0 0.0
2017-Dec-10 16:58N 50°22' W 004°08'0 0.0
2017-Dec-10 16:28N 50°22' W 004°08'0 0.0
2017-Dec-10 15:58N 50°22' W 004°08'0 0.0
2017-Dec-10 15:28N 50°22' W 004°08'0 0.0
2017-Dec-10 14:58N 50°22' W 004°08'0 0.0
2017-Dec-10 14:28N 50°22' W 004°08'0 0.0
2017-Dec-10 13:58N 50°22' W 004°08'0 0.0
2017-Dec-10 13:28N 50°22' W 004°08'0 0.0
2017-Dec-10 12:58N 50°22' W 004°08'0 0.0
2017-Dec-10 12:28N 50°22' W 004°08'0 0.0
2017-Dec-10 11:58N 50°22' W 004°08'0 0.0
2017-Dec-10 11:28N 50°22' W 004°08'0 0.0
2017-Dec-10 10:58N 50°22' W 004°08'0 0.0
2017-Dec-10 10:28N 50°22' W 004°08'0 0.0
2017-Dec-10 09:58N 50°22' W 004°08'0 0.0
2017-Dec-10 09:28N 50°22' W 004°08'0 0.0
2017-Dec-10 08:58N 50°22' W 004°08'0 0.0
2017-Dec-10 08:28N 50°22' W 004°08'0 0.0
2017-Dec-10 07:58N 50°22' W 004°08'0 0.0
2017-Dec-10 07:28N 50°22' W 004°08'0 0.0
2017-Dec-10 06:58N 50°22' W 004°08'0 0.0
2017-Dec-10 06:28N 50°22' W 004°08'0 0.0
2017-Dec-10 05:58N 50°22' W 004°08'0 0.0
2017-Dec-10 05:28N 50°22' W 004°08'0 0.0
2017-Dec-10 04:58N 50°22' W 004°08'0 0.0
2017-Dec-10 04:28N 50°22' W 004°08'0 0.0
2017-Dec-10 03:58N 50°22' W 004°08'0 0.0
2017-Dec-10 03:28N 50°22' W 004°08'0 0.0
2017-Dec-10 02:58N 50°22' W 004°08'0 0.0
2017-Dec-10 02:28N 50°22' W 004°08'0 0.0
2017-Dec-10 01:58N 50°22' W 004°08'0 0.0
2017-Dec-10 01:28N 50°22' W 004°08'0 0.0
2017-Dec-10 00:58N 50°22' W 004°08'0 0.0
2017-Dec-10 00:28N 50°22' W 004°08'0 0.0
2017-Dec-09 23:58N 50°22' W 004°08'0 0.0
2017-Dec-09 23:28N 50°22' W 004°08'0 0.0
2017-Dec-09 22:58N 50°22' W 004°08'0 0.0
2017-Dec-09 22:28N 50°22' W 004°08'0 0.0
2017-Dec-09 21:58N 50°22' W 004°08'0 0.0
2017-Dec-09 21:28N 50°22' W 004°08'0 0.0
2017-Dec-09 20:58N 50°22' W 004°08'0 0.0
2017-Dec-09 20:31N 50°22' W 004°08'0 0.0
2017-Dec-09 20:00N 50°22' W 004°08'0 0.0
2017-Dec-09 19:30N 50°22' W 004°08'0 0.0
2017-Dec-09 19:00N 50°22' W 004°08'0 0.0
2017-Dec-09 18:30N 50°22' W 004°08'0 0.0
2017-Dec-09 18:00N 50°22' W 004°08'0 0.0
2017-Dec-09 17:30N 50°22' W 004°08'0 0.0
2017-Dec-09 17:00N 50°22' W 004°08'0 0.0
2017-Dec-09 16:30N 50°22' W 004°08'0 0.0
2017-Dec-09 16:00N 50°22' W 004°08'0 0.0
2017-Dec-09 15:30N 50°22' W 004°08'0 0.0
2017-Dec-09 15:00N 50°22' W 004°08'0 0.0
2017-Dec-09 14:30N 50°22' W 004°08'0 0.0
2017-Dec-09 14:00N 50°22' W 004°08'0 0.0
2017-Dec-09 13:30N 50°22' W 004°08'0 0.0
2017-Dec-09 13:00N 50°22' W 004°08'0 0.0
2017-Dec-09 12:30N 50°22' W 004°08'0 0.0
2017-Dec-09 12:00N 50°22' W 004°08'0 0.0
2017-Dec-09 11:30N 50°22' W 004°08'0 0.0
2017-Dec-09 11:00N 50°22' W 004°08'0 0.0
2017-Dec-09 10:30N 50°22' W 004°08'0 0.0
2017-Dec-09 10:00N 50°22' W 004°08'0 0.0
2017-Dec-09 09:30N 50°22' W 004°08'0 0.0
2017-Dec-09 09:00N 50°22' W 004°08'0 0.0
2017-Dec-09 08:30N 50°22' W 004°08'0 0.4
2017-Dec-09 08:00N 50°22' W 004°08'1 1.8
2017-Dec-09 07:30N 50°21' W 004°08'0 0.1
2017-Dec-09 07:00N 50°21' W 004°09'0 0.0
2017-Dec-09 06:30N 50°21' W 004°09'0 0.0
2017-Dec-09 06:00N 50°21' W 004°08'0 0.0
2017-Dec-09 05:30N 50°21' W 004°08'0 0.0
2017-Dec-09 05:00N 50°21' W 004°08'0 0.1
2017-Dec-09 04:30N 50°21' W 004°08'0 0.0
2017-Dec-09 04:00N 50°21' W 004°08'0 0.0
2017-Dec-09 03:30N 50°21' W 004°08'0 0.0
2017-Dec-09 03:00N 50°21' W 004°08'0 0.0
2017-Dec-09 02:30N 50°21' W 004°08'0 0.0
2017-Dec-09 02:00N 50°21' W 004°08'0 0.1
2017-Dec-09 01:30N 50°21' W 004°08'0 0.0
2017-Dec-09 01:00N 50°21' W 004°08'0 0.0
2017-Dec-09 00:30N 50°21' W 004°08'0 0.0
2017-Dec-09 00:00N 50°21' W 004°08'0 0.8
2017-Dec-08 23:30N 50°21' W 004°08'3 5.6
2017-Dec-08 23:00N 50°18' W 004°10'510.5
2017-Dec-08 22:30N 50°16' W 004°03'5 9.9
2017-Dec-08 22:00N 50°13' W 003°56'5 9.2
2017-Dec-08 21:30N 50°11' W 003°49'4 9.0
2017-Dec-08 21:00N 50°10' W 003°43'5 9.4
2017-Dec-08 20:30N 50°10' W 003°35'5 9.7
2017-Dec-08 20:00N 50°11' W 003°28'5 9.3
2017-Dec-08 19:30N 50°12' W 003°21'5 9.8
2017-Dec-08 19:00N 50°13' W 003°13'5 9.8
2017-Dec-08 18:30N 50°15' W 003°06'510.1
2017-Dec-08 18:00N 50°16' W 002°58'510.6
2017-Dec-08 17:30N 50°17' W 002°50'510.7
2017-Dec-08 17:00N 50°19' W 002°42'510.8
2017-Dec-08 16:30N 50°20' W 002°34'511.0
2017-Dec-08 16:00N 50°22' W 002°26'510.7
2017-Dec-08 15:30N 50°23' W 002°17'7 9.9
2017-Dec-08 14:46N 50°23' W 002°06'2 9.1
2017-Dec-08 14:30N 50°24' W 002°02'4 8.7
2017-Dec-08 14:00N 50°24' W 001°55'4 7.8
2017-Dec-08 13:29N 50°25' W 001°49'4 6.8
2017-Dec-08 12:57N 50°25' W 001°43'14 5.0
2017-Dec-08 10:07N 50°28' W 001°22'0 4.4
2017-Dec-08 10:00N 50°28' W 001°21'2 3.9
2017-Dec-08 09:30N 50°29' W 001°18'2 3.8
2017-Dec-08 09:00N 50°29' W 001°15'2 4.8
2017-Dec-08 08:30N 50°30' W 001°12'3 5.7
2017-Dec-08 07:59N 50°30' W 001°07'3 7.1
2017-Dec-08 07:30N 50°31' W 001°02'4 7.3
2017-Dec-08 07:00N 50°31' W 000°56'4 7.8
2017-Dec-08 06:30N 50°31' W 000°50'4 8.8
2017-Dec-08 06:00N 50°31' W 000°43'5 9.9
2017-Dec-08 05:29N 50°31' W 000°35'5 9.9
2017-Dec-08 04:58N 50°32' W 000°27'10 9.8
2017-Dec-08 03:56N 50°32' W 000°11'4 9.2
2017-Dec-08 03:28N 50°32' W 000°04'4 8.2
2017-Dec-08 03:00N 50°32' E 000°02'4 7.3
2017-Dec-08 02:30N 50°33' E 000°07'4 7.2
2017-Dec-08 02:00N 50°34' E 000°13'3 6.5
2017-Dec-08 01:30N 50°34' E 000°18'3 6.2
2017-Dec-08 01:00N 50°35' E 000°22'3 6.1
2017-Dec-08 00:30N 50°36' E 000°27'3 7.0
2017-Dec-08 00:00N 50°37' E 000°32'4 7.3
2017-Dec-07 23:30N 50°39' E 000°38'4 8.6
2017-Dec-07 23:00N 50°41' E 000°43'5 9.5
2017-Dec-07 22:30N 50°43' E 000°50'510.8
2017-Dec-07 22:00N 50°47' E 000°56'612.3
2017-Dec-07 21:30N 50°51' E 001°04'713.5
2017-Dec-07 21:00N 50°55' E 001°12'713.7
2017-Dec-07 20:30N 51°00' E 001°20'713.5
2017-Dec-07 20:00N 51°04' E 001°28'612.7
2017-Dec-07 19:30N 51°08' E 001°36'611.5
2017-Dec-07 19:00N 51°13' E 001°40'611.2
2017-Dec-07 18:30N 51°19' E 001°42'510.6
2017-Dec-07 18:00N 51°24' E 001°45'510.4
2017-Dec-07 17:30N 51°29' E 001°45'510.3
2017-Dec-07 17:00N 51°34' E 001°46'510.5
2017-Dec-07 16:31N 51°40' E 001°46'510.3
2017-Dec-07 16:00N 51°45' E 001°45'5 9.4
2017-Dec-07 15:30N 51°49' E 001°45'4 8.6
2017-Dec-07 15:01N 51°54' E 001°45'4 8.0
2017-Dec-07 14:31N 51°58' E 001°46'3 6.8
2017-Dec-07 14:01N 52°01' E 001°46'4 7.3
2017-Dec-07 13:30N 52°05' E 001°47'4 8.1
2017-Dec-07 13:01N 52°09' E 001°49'3 5.5
2017-Dec-07 12:31N 52°11' E 001°49'14 5.3
2017-Dec-07 09:57N 52°25' E 001°53'3 6.5
2017-Dec-07 09:30N 52°28' E 001°54'3 6.7
2017-Dec-07 09:01N 52°31' E 001°55'4 8.3
2017-Dec-07 08:30N 52°35' E 001°56'4 8.2
2017-Dec-07 08:00N 52°39' E 001°57'4 8.1
2017-Dec-07 07:30N 52°43' E 001°57'510.2
2017-Dec-07 07:01N 52°47' E 001°53'510.9
2017-Dec-07 06:31N 52°50' E 001°45'510.5
2017-Dec-07 06:01N 52°53' E 001°38'510.3
2017-Dec-07 05:30N 52°56' E 001°30'510.1
2017-Dec-07 05:01N 52°58' E 001°23'510.3
2017-Dec-07 04:31N 53°00' E 001°15'45 9.9
2017-Dec-06 23:55N 53°31' E 000°19'410.6
2017-Dec-06 23:30N 53°33' E 000°12'611.2
2017-Dec-06 23:00N 53°35' E 000°03'713.5
2017-Dec-06 22:30N 53°37' W 000°07'713.5
2017-Dec-06 22:00N 53°43' W 000°14'611.3
2017-Dec-06 21:30N 53°42' W 000°24'611.4
2017-Dec-06 21:00N 53°42' W 000°33'  
2017-Dec-04 05:48N 53°42' W 000°40'2 7.9
2017-Dec-04 05:30N 53°43' W 000°36'4 8.9
2017-Dec-04 05:00N 53°42' W 000°29'5 9.5
2017-Dec-04 04:30N 53°43' W 000°21'4 8.2
2017-Dec-04 04:00N 53°43' W 000°14'4 9.0
2017-Dec-04 03:30N 53°39' W 000°10'510.1
2017-Dec-04 03:00N 53°36' W 000°03'510.2
2017-Dec-04 02:30N 53°35' E 000°05'4 7.5
2017-Dec-04 02:00N 53°33' E 000°11'4 7.2
2017-Dec-04 01:30N 53°33' E 000°17'4 6.6
2017-Dec-04 00:52N 53°33' E 000°24'38 8.9
2017-Dec-03 20:39N 53°04' E 001°04'2 9.9
2017-Dec-03 20:25N 53°02' E 001°07'4 9.4
2017-Dec-03 20:00N 53°01' E 001°13'4 8.8
2017-Dec-03 19:30N 52°59' E 001°20'4 8.3
2017-Dec-03 19:00N 52°57' E 001°26'4 8.1
2017-Dec-03 18:30N 52°55' E 001°32'4 8.5
2017-Dec-03 18:00N 52°53' E 001°38'5 9.0
2017-Dec-03 17:30N 52°51' E 001°44'5 9.4
2017-Dec-03 17:00N 52°48' E 001°51'510.1
2017-Dec-03 16:30N 52°44' E 001°56'610.8
2017-Dec-03 15:59N 52°39' E 001°57'912.9
2017-Dec-03 15:19N 52°30' E 001°56'513.3
2017-Dec-03 14:56N 52°25' E 001°55'613.1
2017-Dec-03 14:28N 52°19' E 001°53'3612.9
2017-Dec-03 11:42N 51°43' E 001°49'211.8
2017-Dec-03 11:30N 51°41' E 001°49'611.6
2017-Dec-03 11:00N 51°35' E 001°50'611.2
2017-Dec-03 10:30N 51°30' E 001°53'611.3
2017-Dec-03 10:01N 51°26' E 001°59'510.9
2017-Dec-03 09:30N 51°22' E 002°05'5 9.8
2017-Dec-03 09:00N 51°17' E 002°06'5 9.2
2017-Dec-03 08:30N 51°13' E 002°02'5 9.3
2017-Dec-03 08:00N 51°11' E 001°56'4 8.5
2017-Dec-03 07:30N 51°08' E 001°50'4 7.9
2017-Dec-03 07:00N 51°06' E 001°45'4 7.7
2017-Dec-03 06:30N 51°03' E 001°40'4 7.7
2017-Dec-03 06:00N 51°01' E 001°36'4 8.1
2017-Dec-03 05:30N 50°58' E 001°31'4 8.1
2017-Dec-03 05:00N 50°55' E 001°28'4 8.7
2017-Dec-03 04:30N 50°50' E 001°26'5 9.3
2017-Dec-03 04:00N 50°46' E 001°23'6210.2
2017-Dec-02 21:52N 50°19' W 000°06'4213.9
2017-Dec-02 18:49N 50°17' W 001°12'515.1
2017-Dec-02 18:31N 50°16' W 001°19'1215.1
2017-Dec-02 17:43N 50°15' W 001°37'314.7
2017-Dec-02 17:30N 50°15' W 001°42'714.2
2017-Dec-02 17:01N 50°15' W 001°53'3811.5
2017-Dec-02 13:41N 50°12' W 002°53'210.2
2017-Dec-02 13:28N 50°12' W 002°57'4 9.9
2017-Dec-02 13:00N 50°11' W 003°03'5 9.8
2017-Dec-02 12:30N 50°09' W 003°11'5 9.6
2017-Dec-02 12:00N 50°08' W 003°18'5 9.5
2017-Dec-02 11:30N 50°07' W 003°25'5 9.6
2017-Dec-02 11:00N 50°06' W 003°32'5 9.7
2017-Dec-02 10:30N 50°06' W 003°40'5 9.9
2017-Dec-02 10:00N 50°05' W 003°47'1910.3
2017-Dec-02 08:09N 50°01' W 004°17'210.5
2017-Dec-02 08:00N 50°00' W 004°19'610.6
2017-Dec-02 07:27N 49°59' W 004°28'55 5.8
2017-Dec-01 21:54N 50°37' W 005°30'512.2
2017-Dec-01 21:27N 50°40' W 005°24'512.4
2017-Dec-01 21:00N 50°44' W 005°18'612.7
2017-Dec-01 20:30N 50°48' W 005°10'612.8
2017-Dec-01 20:00N 50°52' W 005°02'612.8
2017-Dec-01 19:30N 50°57' W 004°55'612.9
2017-Dec-01 19:00N 51°01' W 004°47'713.2
2017-Dec-01 18:30N 51°05' W 004°39'713.0
2017-Dec-01 18:00N 51°09' W 004°31'612.7
2017-Dec-01 17:30N 51°14' W 004°23'  
Track history (hours):
 
Tides and Currents Weather Stations Pressure Air Temp Water Temp Dewpoint Dewpoint Depression Visibility Wind Speed Wind Dir Waves Ship Positions

Celtic Warrior

Last reported at 2017-Dec-10 21:09 UTC. Time now 2017-Dec-11 00:29 UTC.
Position N 50°21' W 004°38'.

Length 89 m; draft 4.8 m.

Type: Cargo ship. MMSI: 235108405.

Date/timePositionNaut miles runAvg speedWind from/ knotsBaromVisibWave heightAir tempDewpointWater temp
2017-Dec-10 21:09N 50°21' W 004°38'0 0.6
2017-Dec-10 20:40N 50°20' W 004°38'1 5.3
2017-Dec-10 20:30N 50°20' W 004°39'4 8.3
2017-Dec-10 20:01N 50°18' W 004°33'510.2
2017-Dec-10 19:31N 50°18' W 004°25'5 9.8
2017-Dec-10 19:01N 50°18' W 004°17'4 8.8
2017-Dec-10 18:31N 50°20' W 004°10'3 5.9
2017-Dec-10 18:01N 50°22' W 004°08'0 0.1
2017-Dec-10 17:28N 50°22' W 004°08'0 0.0
2017-Dec-10 16:58N 50°22' W 004°08'0 0.0
2017-Dec-10 16:28N 50°22' W 004°08'0 0.0
2017-Dec-10 15:58N 50°22' W 004°08'0 0.0
2017-Dec-10 15:28N 50°22' W 004°08'0 0.0
2017-Dec-10 14:58N 50°22' W 004°08'0 0.0
2017-Dec-10 14:28N 50°22' W 004°08'0 0.0
2017-Dec-10 13:58N 50°22' W 004°08'0 0.0
2017-Dec-10 13:28N 50°22' W 004°08'0 0.0
2017-Dec-10 12:58N 50°22' W 004°08'0 0.0
2017-Dec-10 12:28N 50°22' W 004°08'0 0.0
2017-Dec-10 11:58N 50°22' W 004°08'0 0.0
2017-Dec-10 11:28N 50°22' W 004°08'0 0.0
2017-Dec-10 10:58N 50°22' W 004°08'0 0.0
2017-Dec-10 10:28N 50°22' W 004°08'0 0.0
2017-Dec-10 09:58N 50°22' W 004°08'0 0.0
2017-Dec-10 09:28N 50°22' W 004°08'0 0.0
2017-Dec-10 08:58N 50°22' W 004°08'0 0.0
2017-Dec-10 08:28N 50°22' W 004°08'0 0.0
2017-Dec-10 07:58N 50°22' W 004°08'0 0.0
2017-Dec-10 07:28N 50°22' W 004°08'0 0.0
2017-Dec-10 06:58N 50°22' W 004°08'0 0.0
2017-Dec-10 06:28N 50°22' W 004°08'0 0.0
2017-Dec-10 05:58N 50°22' W 004°08'0 0.0
2017-Dec-10 05:28N 50°22' W 004°08'0 0.0
2017-Dec-10 04:58N 50°22' W 004°08'0 0.0
2017-Dec-10 04:28N 50°22' W 004°08'0 0.0
2017-Dec-10 03:58N 50°22' W 004°08'0 0.0
2017-Dec-10 03:28N 50°22' W 004°08'0 0.0
2017-Dec-10 02:58N 50°22' W 004°08'0 0.0
2017-Dec-10 02:28N 50°22' W 004°08'0 0.0
2017-Dec-10 01:58N 50°22' W 004°08'0 0.0
2017-Dec-10 01:28N 50°22' W 004°08'0 0.0
2017-Dec-10 00:58N 50°22' W 004°08'0 0.0
2017-Dec-10 00:28N 50°22' W 004°08'0 0.0
2017-Dec-09 23:58N 50°22' W 004°08'0 0.0
2017-Dec-09 23:28N 50°22' W 004°08'0 0.0
2017-Dec-09 22:58N 50°22' W 004°08'0 0.0
2017-Dec-09 22:28N 50°22' W 004°08'0 0.0
2017-Dec-09 21:58N 50°22' W 004°08'0 0.0
2017-Dec-09 21:28N 50°22' W 004°08'0 0.0
2017-Dec-09 20:58N 50°22' W 004°08'0 0.0
2017-Dec-09 20:31N 50°22' W 004°08'0 0.0
2017-Dec-09 20:00N 50°22' W 004°08'0 0.0
2017-Dec-09 19:30N 50°22' W 004°08'0 0.0
2017-Dec-09 19:00N 50°22' W 004°08'0 0.0
2017-Dec-09 18:30N 50°22' W 004°08'0 0.0
2017-Dec-09 18:00N 50°22' W 004°08'0 0.0
2017-Dec-09 17:30N 50°22' W 004°08'0 0.0
2017-Dec-09 17:00N 50°22' W 004°08'0 0.0
2017-Dec-09 16:30N 50°22' W 004°08'0 0.0
2017-Dec-09 16:00N 50°22' W 004°08'0 0.0
2017-Dec-09 15:30N 50°22' W 004°08'0 0.0
2017-Dec-09 15:00N 50°22' W 004°08'0 0.0
2017-Dec-09 14:30N 50°22' W 004°08'0 0.0
2017-Dec-09 14:00N 50°22' W 004°08'0 0.0
2017-Dec-09 13:30N 50°22' W 004°08'0 0.0
2017-Dec-09 13:00N 50°22' W 004°08'0 0.0
2017-Dec-09 12:30N 50°22' W 004°08'0 0.0
2017-Dec-09 12:00N 50°22' W 004°08'0 0.0
2017-Dec-09 11:30N 50°22' W 004°08'0 0.0
2017-Dec-09 11:00N 50°22' W 004°08'0 0.0
2017-Dec-09 10:30N 50°22' W 004°08'0 0.0
2017-Dec-09 10:00N 50°22' W 004°08'0 0.0
2017-Dec-09 09:30N 50°22' W 004°08'0 0.0
2017-Dec-09 09:00N 50°22' W 004°08'0 0.0
2017-Dec-09 08:30N 50°22' W 004°08'0 0.4
2017-Dec-09 08:00N 50°22' W 004°08'1 1.8
2017-Dec-09 07:30N 50°21' W 004°08'0 0.1
2017-Dec-09 07:00N 50°21' W 004°09'0 0.0
2017-Dec-09 06:30N 50°21' W 004°09'0 0.0
2017-Dec-09 06:00N 50°21' W 004°08'0 0.0
2017-Dec-09 05:30N 50°21' W 004°08'0 0.0
2017-Dec-09 05:00N 50°21' W 004°08'0 0.1
2017-Dec-09 04:30N 50°21' W 004°08'0 0.0
2017-Dec-09 04:00N 50°21' W 004°08'0 0.0
2017-Dec-09 03:30N 50°21' W 004°08'0 0.0
2017-Dec-09 03:00N 50°21' W 004°08'0 0.0
2017-Dec-09 02:30N 50°21' W 004°08'0 0.0
2017-Dec-09 02:00N 50°21' W 004°08'0 0.1
2017-Dec-09 01:30N 50°21' W 004°08'0 0.0
2017-Dec-09 01:00N 50°21' W 004°08'0 0.0
2017-Dec-09 00:30N 50°21' W 004°08'0 0.0
2017-Dec-09 00:00N 50°21' W 004°08'0 0.8
2017-Dec-08 23:30N 50°21' W 004°08'3 5.6
2017-Dec-08 23:00N 50°18' W 004°10'510.5
2017-Dec-08 22:30N 50°16' W 004°03'5 9.9
2017-Dec-08 22:00N 50°13' W 003°56'5 9.2
2017-Dec-08 21:30N 50°11' W 003°49'4 9.0
2017-Dec-08 21:00N 50°10' W 003°43'5 9.4
2017-Dec-08 20:30N 50°10' W 003°35'5 9.7
2017-Dec-08 20:00N 50°11' W 003°28'5 9.3
2017-Dec-08 19:30N 50°12' W 003°21'5 9.8
2017-Dec-08 19:00N 50°13' W 003°13'5 9.8
2017-Dec-08 18:30N 50°15' W 003°06'510.1
2017-Dec-08 18:00N 50°16' W 002°58'510.6
2017-Dec-08 17:30N 50°17' W 002°50'510.7
2017-Dec-08 17:00N 50°19' W 002°42'510.8
2017-Dec-08 16:30N 50°20' W 002°34'511.0
2017-Dec-08 16:00N 50°22' W 002°26'510.7
2017-Dec-08 15:30N 50°23' W 002°17'7 9.9
2017-Dec-08 14:46N 50°23' W 002°06'2 9.1
2017-Dec-08 14:30N 50°24' W 002°02'4 8.7
2017-Dec-08 14:00N 50°24' W 001°55'4 7.8
2017-Dec-08 13:29N 50°25' W 001°49'4 6.8
2017-Dec-08 12:57N 50°25' W 001°43'14 5.0
2017-Dec-08 10:07N 50°28' W 001°22'0 4.4
2017-Dec-08 10:00N 50°28' W 001°21'2 3.9
2017-Dec-08 09:30N 50°29' W 001°18'2 3.8
2017-Dec-08 09:00N 50°29' W 001°15'2 4.8
2017-Dec-08 08:30N 50°30' W 001°12'3 5.7
2017-Dec-08 07:59N 50°30' W 001°07'3 7.1
2017-Dec-08 07:30N 50°31' W 001°02'4 7.3
2017-Dec-08 07:00N 50°31' W 000°56'4 7.8
2017-Dec-08 06:30N 50°31' W 000°50'4 8.8
2017-Dec-08 06:00N 50°31' W 000°43'5 9.9
2017-Dec-08 05:29N 50°31' W 000°35'5 9.9
2017-Dec-08 04:58N 50°32' W 000°27'10 9.8
2017-Dec-08 03:56N 50°32' W 000°11'4 9.2
2017-Dec-08 03:28N 50°32' W 000°04'4 8.2
2017-Dec-08 03:00N 50°32' E 000°02'4 7.3
2017-Dec-08 02:30N 50°33' E 000°07'4 7.2
2017-Dec-08 02:00N 50°34' E 000°13'3 6.5
2017-Dec-08 01:30N 50°34' E 000°18'3 6.2
2017-Dec-08 01:00N 50°35' E 000°22'3 6.1
2017-Dec-08 00:30N 50°36' E 000°27'3 7.0
2017-Dec-08 00:00N 50°37' E 000°32'4 7.3
2017-Dec-07 23:30N 50°39' E 000°38'4 8.6
2017-Dec-07 23:00N 50°41' E 000°43'5 9.5
2017-Dec-07 22:30N 50°43' E 000°50'510.8
2017-Dec-07 22:00N 50°47' E 000°56'612.3
2017-Dec-07 21:30N 50°51' E 001°04'713.5
2017-Dec-07 21:00N 50°55' E 001°12'713.7
2017-Dec-07 20:30N 51°00' E 001°20'713.5
2017-Dec-07 20:00N 51°04' E 001°28'612.7
2017-Dec-07 19:30N 51°08' E 001°36'611.5
2017-Dec-07 19:00N 51°13' E 001°40'611.2
2017-Dec-07 18:30N 51°19' E 001°42'510.6
2017-Dec-07 18:00N 51°24' E 001°45'510.4
2017-Dec-07 17:30N 51°29' E 001°45'510.3
2017-Dec-07 17:00N 51°34' E 001°46'510.5
2017-Dec-07 16:31N 51°40' E 001°46'510.3
2017-Dec-07 16:00N 51°45' E 001°45'5 9.4
2017-Dec-07 15:30N 51°49' E 001°45'4 8.6
2017-Dec-07 15:01N 51°54' E 001°45'4 8.0
2017-Dec-07 14:31N 51°58' E 001°46'3 6.8
2017-Dec-07 14:01N 52°01' E 001°46'4 7.3
2017-Dec-07 13:30N 52°05' E 001°47'4 8.1
2017-Dec-07 13:01N 52°09' E 001°49'3 5.5
2017-Dec-07 12:31N 52°11' E 001°49'14 5.3
2017-Dec-07 09:57N 52°25' E 001°53'3 6.5
2017-Dec-07 09:30N 52°28' E 001°54'3 6.7
2017-Dec-07 09:01N 52°31' E 001°55'4 8.3
2017-Dec-07 08:30N 52°35' E 001°56'4 8.2
2017-Dec-07 08:00N 52°39' E 001°57'4 8.1
2017-Dec-07 07:30N 52°43' E 001°57'510.2
2017-Dec-07 07:01N 52°47' E 001°53'510.9
2017-Dec-07 06:31N 52°50' E 001°45'510.5
2017-Dec-07 06:01N 52°53' E 001°38'510.3
2017-Dec-07 05:30N 52°56' E 001°30'510.1
2017-Dec-07 05:01N 52°58' E 001°23'510.3
2017-Dec-07 04:31N 53°00' E 001°15'45 9.9
2017-Dec-06 23:55N 53°31' E 000°19'410.6
2017-Dec-06 23:30N 53°33' E 000°12'611.2
2017-Dec-06 23:00N 53°35' E 000°03'713.5
2017-Dec-06 22:30N 53°37' W 000°07'713.5
2017-Dec-06 22:00N 53°43' W 000°14'611.3
2017-Dec-06 21:30N 53°42' W 000°24'611.4
2017-Dec-06 21:00N 53°42' W 000°33'  
2017-Dec-04 05:48N 53°42' W 000°40'2 7.9
2017-Dec-04 05:30N 53°43' W 000°36'4 8.9
2017-Dec-04 05:00N 53°42' W 000°29'5 9.5
2017-Dec-04 04:30N 53°43' W 000°21'4 8.2
2017-Dec-04 04:00N 53°43' W 000°14'4 9.0
2017-Dec-04 03:30N 53°39' W 000°10'510.1
2017-Dec-04 03:00N 53°36' W 000°03'510.2
2017-Dec-04 02:30N 53°35' E 000°05'4 7.5
2017-Dec-04 02:00N 53°33' E 000°11'4 7.2
2017-Dec-04 01:30N 53°33' E 000°17'4 6.6
2017-Dec-04 00:52N 53°33' E 000°24'38 8.9
2017-Dec-03 20:39N 53°04' E 001°04'2 9.9
2017-Dec-03 20:25N 53°02' E 001°07'4 9.4
2017-Dec-03 20:00N 53°01' E 001°13'4 8.8
2017-Dec-03 19:30N 52°59' E 001°20'4 8.3
2017-Dec-03 19:00N 52°57' E 001°26'4 8.1
2017-Dec-03 18:30N 52°55' E 001°32'4 8.5
2017-Dec-03 18:00N 52°53' E 001°38'5 9.0
2017-Dec-03 17:30N 52°51' E 001°44'5 9.4
2017-Dec-03 17:00N 52°48' E 001°51'510.1
2017-Dec-03 16:30N 52°44' E 001°56'610.8
2017-Dec-03 15:59N 52°39' E 001°57'912.9
2017-Dec-03 15:19N 52°30' E 001°56'513.3
2017-Dec-03 14:56N 52°25' E 001°55'613.1
2017-Dec-03 14:28N 52°19' E 001°53'3612.9
2017-Dec-03 11:42N 51°43' E 001°49'211.8
2017-Dec-03 11:30N 51°41' E 001°49'611.6
2017-Dec-03 11:00N 51°35' E 001°50'611.2
2017-Dec-03 10:30N 51°30' E 001°53'611.3
2017-Dec-03 10:01N 51°26' E 001°59'510.9
2017-Dec-03 09:30N 51°22' E 002°05'5 9.8
2017-Dec-03 09:00N 51°17' E 002°06'5 9.2
2017-Dec-03 08:30N 51°13' E 002°02'5 9.3
2017-Dec-03 08:00N 51°11' E 001°56'4 8.5
2017-Dec-03 07:30N 51°08' E 001°50'4 7.9
2017-Dec-03 07:00N 51°06' E 001°45'4 7.7
2017-Dec-03 06:30N 51°03' E 001°40'4 7.7
2017-Dec-03 06:00N 51°01' E 001°36'4 8.1
2017-Dec-03 05:30N 50°58' E 001°31'4 8.1
2017-Dec-03 05:00N 50°55' E 001°28'4 8.7
2017-Dec-03 04:30N 50°50' E 001°26'5 9.3
2017-Dec-03 04:00N 50°46' E 001°23'6210.2
2017-Dec-02 21:52N 50°19' W 000°06'4213.9
2017-Dec-02 18:49N 50°17' W 001°12'515.1
2017-Dec-02 18:31N 50°16' W 001°19'1215.1
2017-Dec-02 17:43N 50°15' W 001°37'314.7
2017-Dec-02 17:30N 50°15' W 001°42'714.2
2017-Dec-02 17:01N 50°15' W 001°53'3811.5
2017-Dec-02 13:41N 50°12' W 002°53'210.2
2017-Dec-02 13:28N 50°12' W 002°57'4 9.9
2017-Dec-02 13:00N 50°11' W 003°03'5 9.8
2017-Dec-02 12:30N 50°09' W 003°11'5 9.6
2017-Dec-02 12:00N 50°08' W 003°18'5 9.5
2017-Dec-02 11:30N 50°07' W 003°25'5 9.6
2017-Dec-02 11:00N 50°06' W 003°32'5 9.7
2017-Dec-02 10:30N 50°06' W 003°40'5 9.9
2017-Dec-02 10:00N 50°05' W 003°47'1910.3
2017-Dec-02 08:09N 50°01' W 004°17'210.5
2017-Dec-02 08:00N 50°00' W 004°19'610.6
2017-Dec-02 07:27N 49°59' W 004°28'55 5.8
2017-Dec-01 21:54N 50°37' W 005°30'512.2
2017-Dec-01 21:27N 50°40' W 005°24'512.4
2017-Dec-01 21:00N 50°44' W 005°18'612.7
2017-Dec-01 20:30N 50°48' W 005°10'612.8
2017-Dec-01 20:00N 50°52' W 005°02'612.8
2017-Dec-01 19:30N 50°57' W 004°55'612.9
2017-Dec-01 19:00N 51°01' W 004°47'713.2
2017-Dec-01 18:30N 51°05' W 004°39'713.0
2017-Dec-01 18:00N 51°09' W 004°31'612.7
2017-Dec-01 17:30N 51°14' W 004°23'  

Dump ship's entire track history